Terminal Aerodrome Forecast
Issued by NWS

Home | Current Version | Previous Version | Text Only | Print | Product List | Glossary On
Versions: 1 2 3 4 5 6 7 8 9 10 11 12 13 14
000
FTUS41 KLWX 291722
TAFMTN
TAF
KMTN 291722Z 2918/3018 06005KT P6SM -DZ OVC008
     FM300300 06005KT 3SM -DZ BR OVC008
     FM301200 06006KT 6SM BR BKN015=

USA.gov is the U.S. government's official web portal to all federal, state and local government web resources and services.